Time;durP1;ratioP1;P1;durP2;ratioP2;P2;SDS_P1;SDS_P2;PMS_P1;PMS_P2;Temp;Humidity;BMP_temperature;BMP_pressure;BME280_temperature;BME280_humidity;BME280_pressure;Samples;Min_cycle;Max_cycle;Signal;HPM_P1;HPM_P2
2022/01/28 00:00:35;;;;;;;9.07;5.50;;;;;;;-7.93;72.27;98567.44;4822910;29;20925;-64
2022/01/28 00:03:08;;;;;;;4.15;1.75;;;;;;;-7.66;73.07;98560.97;4822177;29;20052;-64
2022/01/28 00:05:34;;;;;;;3.80;2.20;;;;;;;-7.80;72.81;98561.22;4821388;29;20058;-65
2022/01/28 00:08:04;;;;;;;7.15;4.18;;;;;;;-8.07;74.19;98538.34;4807679;29;20178;-65
2022/01/28 00:10:31;;;;;;;12.27;6.05;;;;;;;-7.97;74.85;98550.25;4807914;29;20049;-66
2022/01/28 00:15:45;;;;;;;5.35;2.88;;;;;;;-7.93;76.31;98539.00;4822925;29;20045;-70
2022/01/28 00:36:28;;;;;;;12.68;5.07;;;;;;;-8.12;76.16;98532.38;4824394;29;20143;-65
2022/01/28 00:39:46;;;;;;;11.50;5.57;;;;;;;-7.82;76.96;98502.59;4882319;29;20060;-72
2022/01/28 00:42:12;;;;;;;12.18;6.63;;;;;;;-7.94;76.77;98498.47;4911414;29;20422;-71
2022/01/28 00:44:37;;;;;;;8.48;4.95;;;;;;;-7.99;76.52;98520.09;4880235;29;20415;-70
2022/01/28 00:47:09;;;;;;;8.52;4.80;;;;;;;-7.83;76.25;98513.81;4880077;29;20414;-66
2022/01/28 00:49:35;;;;;;;11.48;6.88;;;;;;;-7.93;75.54;98514.84;4879442;29;20050;-73
2022/01/28 00:52:01;;;;;;;14.38;5.55;;;;;;;-7.94;75.46;98500.22;4865997;29;20044;-73
2022/01/28 00:54:29;;;;;;;10.48;4.85;;;;;;;-7.90;75.94;98494.13;4881333;29;20032;-73
2022/01/28 00:56:56;;;;;;;8.50;4.70;;;;;;;-8.04;75.62;98490.91;4881739;29;20389;-67
2022/01/28 00:59:21;;;;;;;7.85;4.60;;;;;;;-7.92;75.54;98496.72;4881987;29;20048;-69
2022/01/28 01:01:46;;;;;;;7.72;3.40;;;;;;;-7.83;75.54;98494.00;4882605;29;20048;-68
2022/01/28 01:04:13;;;;;;;9.10;5.35;;;;;;;-7.93;75.56;98494.16;4881867;29;20055;-67
2022/01/28 01:06:37;;;;;;;9.55;5.80;;;;;;;-7.93;75.73;98478.66;4879940;29;20126;-66
2022/01/28 01:09:04;;;;;;;6.38;2.58;;;;;;;-7.74;75.86;98486.06;4877999;29;20130;-65
2022/01/28 01:11:30;;;;;;;9.60;5.30;;;;;;;-7.89;75.97;98486.31;4861198;29;20040;-68
2022/01/28 01:13:56;;;;;;;12.52;5.38;;;;;;;-7.74;74.69;98472.28;4882131;29;20036;-63
2022/01/28 01:16:30;;;;;;;9.20;3.75;;;;;;;-7.69;75.23;98467.88;4878636;29;20499;-72
2022/01/28 01:19:14;;;;;;;7.33;4.17;;;;;;;-7.66;75.64;98469.53;4879058;29;20360;-72
2022/01/28 01:21:40;;;;;;;3.83;2.10;;;;;;;-7.42;74.91;98458.75;4878249;29;20173;-66
2022/01/28 01:24:08;;;;;;;7.55;4.18;;;;;;;-7.45;74.62;98471.78;4878804;29;20119;-63
2022/01/28 01:26:40;;;;;;;11.30;5.55;;;;;;;-7.75;74.44;98452.47;4877249;29;20044;-64
2022/01/28 01:29:12;;;;;;;11.95;5.72;;;;;;;-7.72;74.50;98449.81;4878443;29;20051;-66
2022/01/28 01:31:41;;;;;;;8.70;5.30;;;;;;;-7.67;75.40;98452.34;4876282;29;20036;-65
2022/01/28 01:34:15;;;;;;;6.15;4.43;;;;;;;-7.39;74.47;98443.16;4878942;29;20040;-67
2022/01/28 01:36:40;;;;;;;10.00;5.22;;;;;;;-7.49;74.37;98455.44;4877072;29;20522;-66
2022/01/28 01:39:08;;;;;;;13.30;5.32;;;;;;;-7.55;74.87;98449.50;4876643;29;20515;-74
2022/01/28 01:41:50;;;;;;;9.68;5.70;;;;;;;-7.59;74.93;98450.47;4878077;29;20601;-71
2022/01/28 01:52:32;;;;;;;8.93;5.03;;;;;;;-7.41;74.79;98434.56;4876478;29;20044;-74
2022/01/28 01:55:02;;;;;;;5.95;3.78;;;;;;;-7.21;75.05;98437.63;4877655;29;20043;-74
2022/01/28 01:57:33;;;;;;;12.20;6.95;;;;;;;-7.60;74.77;98422.88;4892930;29;20040;-69
2022/01/28 01:59:58;;;;;;;13.70;5.10;;;;;;;-7.50;74.07;98425.25;4875070;29;20090;-73
2022/01/28 02:02:23;;;;;;;7.57;4.05;;;;;;;-7.36;75.03;98423.28;4878857;29;20040;-75
2022/01/28 02:04:49;;;;;;;11.35;5.65;;;;;;;-7.26;74.54;98425.66;4861759;29;20044;-65
2022/01/28 02:07:18;;;;;;;6.50;3.63;;;;;;;-7.20;74.95;98438.47;4875708;29;20046;-67
2022/01/28 02:09:43;;;;;;;9.23;5.47;;;;;;;-7.39;74.37;98436.25;4877072;29;20044;-73
2022/01/28 02:12:09;;;;;;;11.55;4.35;;;;;;;-7.14;74.49;98426.28;4878104;29;20092;-66
2022/01/28 02:14:36;;;;;;;10.23;5.35;;;;;;;-7.36;74.15;98425.84;4875813;29;20044;-65
2022/01/28 02:17:26;;;;;;;8.63;4.82;;;;;;;-7.18;74.74;98423.78;4876956;29;20051;-65
2022/01/28 02:19:51;;;;;;;9.77;5.10;;;;;;;-7.22;73.86;98417.78;4876701;29;20048;-66
2022/01/28 02:22:18;;;;;;;6.10;2.53;;;;;;;-7.09;74.93;98426.16;4876112;29;20052;-64
2022/01/28 02:24:45;;;;;;;6.43;3.83;;;;;;;-7.19;74.82;98411.69;4878727;29;20052;-63
2022/01/28 02:27:13;;;;;;;12.65;5.47;;;;;;;-7.09;74.61;98408.03;4879274;29;20044;-64
2022/01/28 02:30:11;;;;;;;8.10;4.95;;;;;;;-7.05;74.83;98405.38;4882314;29;20052;-63
2022/01/28 02:32:38;;;;;;;;;;;;;;;-6.83;74.45;98400.56;4882894;29;20039;-64
2022/01/28 02:35:03;;;;;;;7.30;4.13;;;;;;;-7.02;73.59;98400.13;4882517;29;19919;-64
2022/01/28 02:37:28;;;;;;;8.80;5.78;;;;;;;-7.08;73.74;98395.06;4881197;29;20107;-65
2022/01/28 02:39:53;;;;;;;7.57;3.63;;;;;;;-7.05;73.92;98386.38;4882065;29;20515;-65
2022/01/28 02:42:31;;;;;;;6.90;3.35;;;;;;;-6.92;73.96;98394.75;4882354;29;20048;-64
2022/01/28 02:44:58;;;;;;;14.60;5.03;;;;;;;-6.97;74.02;98389.66;4860728;29;20060;-64
2022/01/28 02:47:32;;;;;;;9.93;4.72;;;;;;;-7.04;74.00;98378.59;4861030;29;20585;-65
2022/01/28 02:49:58;;;;;;;5.50;3.78;;;;;;;-6.91;73.58;98378.31;4845370;29;20056;-64
2022/01/28 02:53:00;;;;;;;3.72;2.33;;;;;;;-6.92;73.19;98387.81;4861556;29;20045;-66
2022/01/28 02:55:15;;;;;;;6.32;4.65;;;;;;;-6.82;72.53;98358.22;4861070;29;20570;-63
2022/01/28 02:57:50;;;;;;;8.38;5.22;;;;;;;-6.99;72.83;98368.97;4861221;29;20523;-63
2022/01/28 03:00:15;;;;;;;6.72;4.72;;;;;;;-6.94;73.27;98370.59;4861714;29;20896;-64
2022/01/28 03:02:41;;;;;;;10.68;6.15;;;;;;;-7.18;72.09;98364.22;4861334;29;20071;-64
2022/01/28 03:07:58;;;;;;;12.95;5.68;;;;;;;-7.19;72.77;98362.50;4862100;29;20060;-63
2022/01/28 03:15:35;;;;;;;13.35;7.25;;;;;;;-7.15;73.10;98359.84;4853959;29;20099;-62
2022/01/28 03:20:58;;;;;;;6.53;3.63;;;;;;;-6.80;72.19;98355.59;4863808;29;20046;-69
2022/01/28 03:23:25;;;;;;;8.20;4.10;;;;;;;-6.81;71.94;98369.44;4863695;29;20103;-69
2022/01/28 03:25:54;;;;;;;16.50;7.55;;;;;;;-7.05;72.09;98363.06;4879558;29;20044;-68
2022/01/28 03:28:20;;;;;;;11.73;6.68;;;;;;;-7.23;73.00;98361.75;4895331;29;20400;-71
2022/01/28 03:30:51;;;;;;;11.80;6.95;;;;;;;-7.36;73.46;98355.97;4880890;29;20571;-67
2022/01/28 03:33:16;;;;;;;12.25;6.10;;;;;;;-7.36;73.01;98376.66;4880425;29;20475;-70
2022/01/28 03:35:40;;;;;;;4.55;2.80;;;;;;;-6.99;73.74;98366.38;4881093;29;20438;-68
2022/01/28 03:38:10;;;;;;;10.75;5.28;;;;;;;-7.05;73.58;98356.16;4880485;29;20048;-69
2022/01/28 03:40:36;;;;;;;8.52;4.43;;;;;;;-6.92;73.13;98350.69;4879027;29;20484;-68
2022/01/28 03:43:06;;;;;;;10.30;4.63;;;;;;;-6.89;73.16;98345.47;4879118;29;20605;-67
2022/01/28 03:45:30;;;;;;;9.50;4.90;;;;;;;-6.86;72.95;98332.41;4880348;29;20384;-68
2022/01/28 03:47:55;;;;;;;4.63;3.40;;;;;;;-6.91;73.64;98348.09;4880166;29;20108;-69
2022/01/28 03:50:21;;;;;;;13.40;6.68;;;;;;;-6.91;72.92;98334.28;4880225;29;20043;-68
2022/01/28 03:52:46;;;;;;;6.45;3.50;;;;;;;-7.00;73.68;98338.75;4894959;29;20050;-69
2022/01/28 03:55:12;;;;;;;5.15;3.63;;;;;;;-6.78;72.71;98338.31;4880160;29;20143;-68
2022/01/28 03:57:37;;;;;;;11.07;6.75;;;;;;;-6.85;73.01;98339.31;4880271;29;20139;-71
2022/01/28 11:46:11;;;;;;;16.95;7.47;;;;;;;-4.97;72.78;98157.53;5438148;23;20059;-66
2022/01/28 11:49:01;;;;;;;22.20;10.45;;;;;;;-5.04;73.04;98160.38;4881404;29;20051;-65
2022/01/28 11:51:32;;;;;;;18.73;9.18;;;;;;;-5.05;74.05;98143.06;4880375;29;20052;-67
2022/01/28 11:54:00;;;;;;;22.48;11.25;;;;;;;-5.06;74.15;98165.59;4881425;29;20123;-66
2022/01/28 11:56:25;;;;;;;12.73;8.25;;;;;;;-4.87;74.23;98152.88;4880568;29;20047;-66
2022/01/28 11:58:51;;;;;;;24.85;12.80;;;;;;;-5.00;73.95;98159.38;4876956;29;20131;-65
2022/01/28 12:01:16;;;;;;;25.17;11.95;;;;;;;-4.96;74.05;98163.56;4862302;29;20415;-65
2022/01/28 12:03:40;;;;;;;19.17;8.50;;;;;;;-4.90;73.86;98160.75;4862546;29;20385;-63
2022/01/28 12:06:08;;;;;;;30.50;13.55;;;;;;;-4.96;73.80;98159.22;4862261;29;20071;-66
2022/01/28 12:08:34;;;;;;;24.85;11.30;;;;;;;-4.97;74.07;98162.72;4862285;29;20108;-65
2022/01/28 12:11:03;;;;;;;24.90;11.85;;;;;;;-5.01;74.05;98166.31;4862326;29;20052;-67
2022/01/28 12:13:49;;;;;;;24.23;12.30;;;;;;;-5.04;74.69;98169.00;4862394;29;20070;-65
2022/01/28 12:16:26;;;;;;;31.30;14.07;;;;;;;-4.89;74.29;98165.91;4865217;29;20037;-66
2022/01/28 12:18:56;;;;;;;22.25;9.95;;;;;;;-4.90;74.67;98163.38;4869644;29;20055;-67
2022/01/28 12:21:24;;;;;;;29.88;12.23;;;;;;;-4.86;74.20;98171.03;4878727;29;20045;-66
2022/01/28 12:23:51;;;;;;;26.98;11.90;;;;;;;-4.90;74.11;98169.41;4863977;29;20052;-66
2022/01/28 12:26:18;;;;;;;28.05;11.88;;;;;;;-4.84;73.81;98166.59;4862457;29;20503;-67
2022/01/28 12:28:45;;;;;;;23.77;11.52;;;;;;;-4.85;74.28;98170.09;4860267;29;20460;-66
2022/01/28 12:31:16;;;;;;;30.10;14.27;;;;;;;-4.92;74.13;98166.00;4862277;29;20072;-74
2022/01/28 12:33:45;;;;;;;25.48;11.40;;;;;;;-4.91;74.34;98164.25;4893161;29;20052;-72
2022/01/28 12:36:15;;;;;;;14.32;8.02;;;;;;;-4.87;74.51;98176.28;4861304;29;20045;-74
2022/01/28 12:38:54;;;;;;;27.30;13.90;;;;;;;-4.99;74.51;98177.53;4863479;29;20048;-69
2022/01/28 12:41:21;;;;;;;15.77;8.63;;;;;;;-4.97;74.71;98165.34;4863348;29;20044;-67
2022/01/28 12:43:46;;;;;;;26.65;13.10;;;;;;;-5.00;75.11;98175.81;4863975;29;20048;-72
2022/01/28 12:46:14;;;;;;;25.52;12.80;;;;;;;-5.02;74.94;98162.03;4863809;29;20064;-67
2022/01/28 12:48:46;;;;;;;29.85;14.15;;;;;;;-5.00;75.41;98154.19;4896648;29;20510;-68
2022/01/28 12:51:13;;;;;;;10.27;5.38;;;;;;;-4.94;75.78;98153.97;4865617;29;20138;-70
2022/01/28 12:53:42;;;;;;;32.28;15.38;;;;;;;-4.85;75.26;98158.84;4864084;29;20055;-72
2022/01/28 12:56:09;;;;;;;21.48;9.73;;;;;;;-4.79;75.09;98156.91;4864117;29;20052;-69
2022/01/28 12:58:48;;;;;;;29.40;14.02;;;;;;;-4.94;75.09;98154.81;4894724;29;20062;-69
2022/01/28 13:01:17;;;;;;;28.90;13.98;;;;;;;-4.92;74.87;98153.03;4864690;29;20411;-69
2022/01/28 13:04:03;;;;;;;28.63;13.75;;;;;;;-5.05;75.01;98153.47;4869003;29;20048;-71
2022/01/28 13:08:57;;;;;;;31.00;13.98;;;;;;;-5.09;75.61;98154.50;4875455;29;20782;-69
2022/01/28 13:11:24;;;;;;;33.22;15.25;;;;;;;-5.13;75.41;98154.59;4871747;29;20124;-68
2022/01/28 13:13:54;;;;;;;33.45;14.63;;;;;;;-5.10;75.20;98157.97;4870005;29;20108;-68
2022/01/28 13:16:51;;;;;;;36.97;16.02;;;;;;;-5.06;75.00;98149.16;4879792;29;20051;-71
2022/01/28 13:19:16;;;;;;;35.55;16.77;;;;;;;-5.14;75.23;98159.81;4880405;29;20048;-70
2022/01/28 13:21:44;;;;;;;39.30;18.58;;;;;;;-5.06;75.25;98149.16;4882376;29;20048;-68
2022/01/28 13:24:20;;;;;;;37.92;17.60;;;;;;;-5.17;75.19;98149.53;4885637;29;20044;-71
2022/01/28 13:27:03;;;;;;;30.95;14.63;;;;;;;-5.18;74.70;98151.28;4883335;29;20846;-69
2022/01/28 13:29:32;;;;;;;37.65;16.08;;;;;;;-5.32;75.12;98155.22;4879256;29;20134;-70
2022/01/28 13:31:58;;;;;;;25.88;12.43;;;;;;;-5.21;75.83;98145.34;4880023;29;20127;-71
2022/01/28 13:34:23;;;;;;;34.35;17.15;;;;;;;-5.22;75.23;98149.69;4879055;29;20048;-69
2022/01/28 13:36:50;;;;;;;28.52;13.35;;;;;;;-5.15;75.01;98158.97;4881877;29;20048;-71
2022/01/28 13:39:17;;;;;;;36.53;15.90;;;;;;;-5.33;76.43;98158.72;4881930;29;20103;-70
2022/01/28 13:41:47;;;;;;;23.48;11.63;;;;;;;-5.12;75.65;98150.25;4869447;29;20045;-72
2022/01/28 13:44:26;;;;;;;41.35;20.08;;;;;;;-5.20;75.06;98147.03;4869500;29;20182;-70
2022/01/28 13:47:00;;;;;;;31.83;12.00;;;;;;;-5.29;75.21;98142.97;4885179;29;20062;-71
2022/01/28 13:49:30;;;;;;;43.93;15.17;;;;;;;-5.33;75.60;98146.59;4880863;29;20046;-70
2022/01/28 13:52:12;;;;;;;38.22;16.75;;;;;;;-5.33;75.53;98146.59;4866105;29;20398;-70
2022/01/28 13:54:40;;;;;;;34.75;16.77;;;;;;;-5.40;75.82;98160.63;4882470;29;20036;-72
2022/01/28 13:57:10;;;;;;;34.70;16.63;;;;;;;-5.36;75.97;98144.09;4886802;29;20040;-70
2022/01/28 13:59:36;;;;;;;42.67;19.20;;;;;;;-5.26;75.53;98142.88;4870143;29;20115;-70
2022/01/28 14:02:10;;;;;;;22.45;11.82;;;;;;;-5.25;75.32;98154.13;4885294;29;20052;-70
2022/01/28 14:04:44;;;;;;;32.92;16.73;;;;;;;-5.25;75.27;98148.94;4885139;29;20044;-70
2022/01/28 14:07:18;;;;;;;23.27;11.13;;;;;;;-5.22;75.26;98148.84;4884130;29;20071;-70
2022/01/28 14:09:56;;;;;;;27.75;14.23;;;;;;;-5.18;75.26;98153.88;4900387;29;20048;-71
2022/01/28 14:12:38;;;;;;;30.38;15.90;;;;;;;-5.29;75.27;98153.38;4881845;29;20078;-71
2022/01/28 14:15:15;;;;;;;31.45;13.90;;;;;;;-5.35;75.23;98148.38;4883686;29;20063;-71
2022/01/28 14:17:41;;;;;;;24.08;10.77;;;;;;;-5.28;75.64;98156.81;4884792;29;20072;-71
2022/01/28 14:20:09;;;;;;;47.58;20.17;;;;;;;-5.30;75.56;98143.00;4888659;29;20055;-69
2022/01/28 14:22:35;;;;;;;30.30;16.27;;;;;;;-5.42;75.59;98149.47;4902669;29;20044;-72
2022/01/28 14:25:00;;;;;;;23.50;12.73;;;;;;;-5.14;75.03;98146.84;4893085;29;20044;-71
2022/01/28 14:30:04;;;;;;;39.70;17.75;;;;;;;-5.38;75.26;98160.59;4892640;29;20066;-71
2022/01/28 14:32:42;;;;;;;39.40;18.80;;;;;;;-5.45;75.54;98159.09;4888511;29;20047;-71
2022/01/28 14:35:07;;;;;;;34.42;15.75;;;;;;;-5.49;75.97;98161.78;4888479;29;20043;-70
2022/01/28 14:37:37;;;;;;;37.80;17.88;;;;;;;-5.52;76.24;98163.63;4867112;29;20047;-69
2022/01/28 14:40:03;;;;;;;34.95;16.73;;;;;;;-5.58;76.56;98162.06;4884289;29;20055;-69
2022/01/28 14:42:28;;;;;;;35.53;16.58;;;;;;;-5.45;76.25;98156.50;4884444;29;20107;-69
2022/01/28 14:44:53;;;;;;;30.42;14.15;;;;;;;-5.40;76.08;98165.00;4882605;29;20052;-69
2022/01/28 14:47:18;;;;;;;34.90;17.60;;;;;;;-5.51;76.41;98160.13;4882925;29;20052;-70
2022/01/28 14:49:43;;;;;;;39.75;18.60;;;;;;;-5.41;76.25;98160.69;4885032;29;20063;-71
2022/01/28 14:52:13;;;;;;;30.38;16.60;;;;;;;-5.40;76.31;98165.00;4867810;29;20429;-74
2022/01/28 14:54:39;;;;;;;30.25;14.10;;;;;;;-5.49;76.23;98155.75;4883009;29;20407;-71
2022/01/28 14:57:10;;;;;;;37.00;18.30;;;;;;;-5.51;76.23;98155.78;4882704;29;20474;-68
2022/01/28 14:59:38;;;;;;;41.90;19.90;;;;;;;-5.48;76.14;98154.84;4882300;29;20124;-72
2022/01/28 15:02:05;;;;;;;36.83;17.65;;;;;;;-5.43;76.25;98159.91;4881468;29;20059;-71
2022/01/28 15:04:30;;;;;;;24.95;11.95;;;;;;;-5.30;76.38;98163.78;4881720;29;20056;-70
2022/01/28 15:06:55;;;;;;;34.03;14.88;;;;;;;-5.40;75.73;98160.63;4881718;29;20055;-71
2022/01/28 15:09:19;;;;;;;22.38;9.85;;;;;;;-5.32;75.90;98163.03;4883853;29;20044;-71
2022/01/28 15:11:47;;;;;;;38.70;19.77;;;;;;;-5.56;75.64;98173.28;4883165;29;20048;-71
2022/01/28 15:14:23;;;;;;;46.95;20.23;;;;;;;-5.50;75.95;98165.28;4882725;29;20051;-74
2022/01/28 15:16:49;;;;;;;35.22;16.67;;;;;;;-5.60;76.34;98169.06;4880973;29;20058;-68
2022/01/28 15:19:15;;;;;;;24.20;8.98;;;;;;;-5.39;76.17;98171.88;4882065;29;20419;-67
2022/01/28 15:21:44;;;;;;;50.65;21.27;;;;;;;-5.45;75.87;98170.34;4864673;29;20554;-66
2022/01/28 15:24:10;;;;;;;37.30;17.20;;;;;;;-5.45;75.94;98174.69;4882067;29;20388;-67
2022/01/28 15:26:34;;;;;;;35.72;15.50;;;;;;;-5.49;76.06;98163.53;4882370;29;20044;-66
2022/01/28 15:29:04;;;;;;;18.52;9.90;;;;;;;-5.42;76.09;98161.63;4874920;29;20051;-67
2022/01/28 15:34:41;;;;;;;35.57;15.50;;;;;;;-5.39;75.97;98164.94;4872256;29;20047;-69
2022/01/28 15:37:07;;;;;;;39.17;15.90;;;;;;;-5.33;75.83;98174.31;4871717;29;20044;-68
2022/01/28 15:39:35;;;;;;;39.80;18.10;;;;;;;-5.36;75.52;98161.41;4869323;29;20194;-66
2022/01/28 15:42:00;;;;;;;27.77;12.38;;;;;;;-5.32;75.51;98157.81;4890718;29;20040;-66
2022/01/28 15:44:25;;;;;;;39.67;19.02;;;;;;;-5.52;75.62;98159.28;4871313;29;20047;-68
2022/01/28 15:46:53;;;;;;;34.20;15.32;;;;;;;-5.50;75.74;98161.84;4872106;29;20515;-68
2022/01/28 15:49:18;;;;;;;38.20;16.80;;;;;;;-5.41;76.15;98155.50;4870547;29;20040;-71
2022/01/28 15:51:42;;;;;;;32.92;17.45;;;;;;;-5.35;76.00;98158.78;4872064;29;20051;-72
2022/01/28 15:54:07;;;;;;;36.28;16.67;;;;;;;-5.44;76.17;98155.63;4892293;29;20028;-68
2022/01/28 15:56:32;;;;;;;24.40;10.55;;;;;;;-5.45;75.95;98153.91;4872542;29;20048;-67
2022/01/28 15:58:57;;;;;;;20.77;9.75;;;;;;;-5.42;75.99;98153.81;4871993;29;20035;-66
2022/01/28 16:01:24;;;;;;;40.28;18.83;;;;;;;-5.49;76.68;98156.59;4873236;29;20103;-74
2022/01/28 16:04:08;;;;;;;37.55;18.50;;;;;;;-5.49;75.99;98158.34;4881342;29;20051;-69
2022/01/28 16:06:37;;;;;;;36.80;18.77;;;;;;;-5.47;76.21;98156.56;4880456;29;20048;-73
2022/01/28 16:09:04;;;;;;;31.90;15.80;;;;;;;-5.46;76.16;98154.81;4864392;29;20075;-68
2022/01/28 16:11:32;;;;;;;43.55;19.77;;;;;;;-5.49;76.20;98151.41;4879910;29;20047;-69
2022/01/28 16:14:20;;;;;;;35.17;17.05;;;;;;;-5.54;76.33;98153.31;4879285;29;20047;-72
2022/01/28 16:19:34;;;;;;;42.22;18.52;;;;;;;-5.46;75.60;98145.28;4881262;29;20048;-70
2022/01/28 16:21:59;;;;;;;36.13;18.48;;;;;;;-5.50;75.91;98160.09;4881825;29;20103;-67
2022/01/28 16:24:24;;;;;;;46.30;21.85;;;;;;;-5.53;75.77;98160.16;4881443;29;20069;-72
2022/01/28 16:26:53;;;;;;;40.38;17.35;;;;;;;-5.49;76.03;98161.78;4882514;29;20044;-73
2022/01/28 16:29:18;;;;;;;15.35;8.93;;;;;;;-5.49;75.85;98155.75;4880647;29;20083;-74
2022/01/28 16:31:43;;;;;;;41.28;18.98;;;;;;;-5.47;76.16;98156.56;4880527;29;20103;-72
2022/01/28 16:34:15;;;;;;;42.05;20.95;;;;;;;-5.49;75.66;98154.00;4879511;29;20044;-70
2022/01/28 16:36:48;;;;;;;41.17;19.00;;;;;;;-5.60;75.65;98150.88;4880824;29;20044;-73
2022/01/28 16:39:13;;;;;;;40.78;19.58;;;;;;;-5.61;76.04;98164.75;4879899;29;20126;-71
2022/01/28 16:41:42;;;;;;;33.13;15.25;;;;;;;-5.45;76.50;98156.50;4879936;29;20176;-72
2022/01/28 16:44:28;;;;;;;39.63;17.98;;;;;;;-5.44;76.07;98155.63;4880136;29;20075;-72
2022/01/28 16:46:53;;;;;;;50.80;24.23;;;;;;;-5.62;76.12;98162.22;4880214;29;20134;-70
2022/01/28 16:49:18;;;;;;;25.77;12.30;;;;;;;-5.49;76.59;98156.59;4878779;29;20048;-73
2022/01/28 16:51:44;;;;;;;20.38;9.00;;;;;;;-5.38;76.24;98147.63;4859958;29;20052;-68
2022/01/28 16:54:10;;;;;;;40.35;17.77;;;;;;;-5.50;76.13;98165.28;4861493;29;20068;-69
2022/01/28 16:56:36;;;;;;;43.35;19.27;;;;;;;-5.60;76.29;98161.28;4861887;29;20563;-67
2022/01/28 16:59:01;;;;;;;41.08;18.63;;;;;;;-5.56;76.69;98162.88;4860799;29;20048;-69
2022/01/28 17:01:26;;;;;;;35.97;17.42;;;;;;;-5.54;76.80;98165.44;4815033;29;20052;-69
2022/01/28 17:03:52;;;;;;;23.73;11.65;;;;;;;-5.33;76.48;98150.94;4862888;29;20036;-68
2022/01/28 17:06:18;;;;;;;43.55;18.77;;;;;;;-5.50;76.57;98154.91;4867203;29;20128;-69
2022/01/28 17:08:44;;;;;;;23.17;11.52;;;;;;;-5.47;76.80;98153.09;4855925;29;20048;-67
2022/01/28 17:11:27;;;;;;;40.22;17.65;;;;;;;-5.43;76.78;98149.53;4870773;29;20135;-76
2022/01/28 17:13:53;;;;;;;38.53;20.48;;;;;;;-5.44;76.74;98153.88;4885248;29;20068;-68
2022/01/28 17:16:23;;;;;;;30.58;14.07;;;;;;;-5.24;76.55;98154.06;4886509;29;20487;-67
2022/01/28 17:18:48;;;;;;;45.10;21.38;;;;;;;-5.41;76.38;98156.34;4879544;29;20036;-66
2022/01/28 17:21:13;;;;;;;36.30;18.15;;;;;;;-5.20;76.06;98163.47;4876558;29;20063;-70
2022/01/28 17:23:38;;;;;;;40.38;18.30;;;;;;;-5.23;75.77;98160.13;4866859;29;20044;-69
2022/01/28 17:26:04;;;;;;;44.00;20.00;;;;;;;-5.36;75.47;98156.22;4868140;29;20063;-66
2022/01/28 17:28:29;;;;;;;21.42;10.73;;;;;;;-5.38;76.21;98153.66;4868178;29;20040;-68
2022/01/28 17:31:00;;;;;;;44.58;19.27;;;;;;;-5.37;76.12;98157.09;4865087;29;20044;-67
2022/01/28 17:33:25;;;;;;;43.05;18.83;;;;;;;-5.47;75.96;98161.75;4867943;29;20047;-69
2022/01/28 17:35:50;;;;;;;40.88;16.42;;;;;;;-5.44;76.48;98168.59;4861267;29;20063;-69
2022/01/28 17:38:20;;;;;;;44.00;15.30;;;;;;;-5.38;76.70;98161.44;4867747;29;20079;-69
2022/01/28 17:40:50;;;;;;;34.38;13.57;;;;;;;-5.26;76.42;98161.06;4864822;29;20055;-69
2022/01/28 17:43:15;;;;;;;32.65;14.60;;;;;;;-5.19;75.77;98151.34;4866712;29;20048;-68
2022/01/28 17:45:39;;;;;;;34.00;14.85;;;;;;;-5.20;75.36;98155.69;4868825;29;20052;-69
2022/01/28 17:48:05;;;;;;;43.20;20.27;;;;;;;-5.31;75.27;98156.94;4871140;29;20048;-66
2022/01/28 17:50:31;;;;;;;35.58;18.13;;;;;;;-5.36;75.74;98167.44;4870203;29;20043;-67
2022/01/28 17:52:57;;;;;;;48.03;22.45;;;;;;;-5.33;75.51;98167.38;4865940;29;20071;-67
2022/01/28 17:55:29;;;;;;;47.05;19.95;;;;;;;-5.31;75.64;98164.72;4868067;29;20048;-68
2022/01/28 17:58:02;;;;;;;36.88;18.58;;;;;;;-5.39;75.63;98164.09;4870627;29;20049;-69
2022/01/28 18:00:30;;;;;;;42.13;19.90;;;;;;;-5.50;76.03;98170.47;4871863;29;20058;-68
2022/01/28 18:02:54;;;;;;;30.42;14.88;;;;;;;-5.29;76.00;98162.91;4882262;29;20044;-70
2022/01/28 18:05:21;;;;;;;48.05;19.63;;;;;;;-5.35;75.59;98155.31;4880372;29;20051;-69
2022/01/28 18:07:46;;;;;;;45.55;22.20;;;;;;;-5.38;75.73;98163.19;4882960;29;20056;-68
2022/01/28 18:10:14;;;;;;;31.80;16.80;;;;;;;-5.37;75.69;98159.72;4882516;29;20454;-67
2022/01/28 18:12:39;;;;;;;48.08;22.83;;;;;;;-5.51;76.10;98157.53;4872472;29;20073;-70
2022/01/28 18:15:05;;;;;;;45.22;20.60;;;;;;;-5.50;75.91;98156.63;4867053;29;20036;-68
2022/01/28 18:17:30;;;;;;;49.67;21.77;;;;;;;-5.57;76.46;98162.94;4873038;29;20143;-68
2022/01/28 18:19:55;;;;;;;35.78;16.55;;;;;;;-5.45;76.84;98166.91;4881564;29;20142;-68
2022/01/28 18:22:20;;;;;;;32.47;16.05;;;;;;;-5.49;76.51;98172.16;4880616;29;20563;-68
2022/01/28 18:24:45;;;;;;;35.08;15.98;;;;;;;-5.40;76.46;98175.38;4877402;29;20069;-68
2022/01/28 18:27:13;;;;;;;40.75;19.83;;;;;;;-5.45;76.79;98159.97;4867075;29;20044;-68
2022/01/28 18:29:38;;;;;;;36.60;18.30;;;;;;;-5.49;76.69;98163.53;4863907;29;20084;-72
2022/01/28 18:32:04;;;;;;;37.65;16.08;;;;;;;-5.37;77.18;98159.72;4873031;29;20044;-69
2022/01/28 18:34:29;;;;;;;41.92;21.40;;;;;;;-5.36;76.94;98157.06;4883073;29;20044;-72
2022/01/28 18:36:54;;;;;;;26.92;13.40;;;;;;;-5.24;77.08;98161.88;4879489;29;20062;-67
2022/01/28 18:39:19;;;;;;;41.30;19.58;;;;;;;-5.25;76.53;98164.50;4870305;29;20040;-69
2022/01/28 18:41:46;;;;;;;29.50;12.77;;;;;;;-5.25;76.51;98154.97;4864044;29;20059;-70
2022/01/28 18:44:18;;;;;;;47.88;22.55;;;;;;;-5.30;75.97;98166.38;4872299;29;20518;-72
2022/01/28 18:47:07;;;;;;;26.02;12.68;;;;;;;-5.33;76.36;98156.13;4871378;29;20064;-69
2022/01/28 18:49:33;;;;;;;37.47;16.67;;;;;;;-5.34;76.42;98159.63;4874945;29;20408;-74
2022/01/28 18:52:00;;;;;;;50.78;22.30;;;;;;;-5.40;76.48;98167.59;4870546;29;20040;-75
2022/01/28 18:54:25;;;;;;;46.75;22.65;;;;;;;-5.37;76.14;98167.50;4873484;29;20067;-68
2022/01/28 18:56:51;;;;;;;26.33;11.05;;;;;;;-5.34;76.32;98162.22;4856345;29;20055;-66
2022/01/28 18:59:16;;;;;;;39.97;17.58;;;;;;;-5.50;76.74;98164.44;4874638;29;20410;-69
2022/01/28 19:01:41;;;;;;;39.45;20.30;;;;;;;-5.50;76.65;98167.88;4871855;29;20468;-66
2022/01/28 19:04:07;;;;;;;51.92;25.17;;;;;;;-5.45;76.50;98151.31;4861306;29;20159;-67
2022/01/28 19:06:32;;;;;;;37.55;16.95;;;;;;;-5.48;76.59;98160.03;4869034;29;20040;-66
2022/01/28 19:08:56;;;;;;;41.55;21.45;;;;;;;-5.61;76.54;98156.13;4867909;29;20049;-68
2022/01/28 19:11:23;;;;;;;39.30;19.23;;;;;;;-5.59;77.06;98167.31;4874950;29;20044;-67
2022/01/28 19:13:47;;;;;;;38.85;16.88;;;;;;;-5.47;76.98;98158.28;4871618;29;20048;-67
2022/01/28 19:16:12;;;;;;;40.67;19.55;;;;;;;-5.37;76.94;98170.94;4869635;29;20051;-67
2022/01/28 19:18:37;;;;;;;35.60;15.20;;;;;;;-5.40;76.68;98155.44;4862733;29;20048;-67
2022/01/28 19:21:02;;;;;;;30.50;13.07;;;;;;;-5.43;76.62;98150.38;4863266;29;20080;-67
2022/01/28 19:23:27;;;;;;;38.78;17.95;;;;;;;-5.43;76.60;98159.91;4879297;29;20076;-67
2022/01/28 19:25:51;;;;;;;45.70;18.45;;;;;;;-5.50;76.60;98172.22;4882198;29;20086;-66
2022/01/28 19:28:17;;;;;;;45.70;19.63;;;;;;;-5.43;76.45;98173.75;4878540;29;20055;-67
2022/01/28 19:30:47;;;;;;;48.13;23.27;;;;;;;-5.39;75.94;98161.50;4864743;29;20079;-68
2022/01/28 19:33:15;;;;;;;45.72;20.02;;;;;;;-5.38;75.88;98152.81;4880791;29;20056;-67
2022/01/28 19:35:41;;;;;;;52.25;21.45;;;;;;;-5.57;76.14;98160.34;4873593;29;20048;-67
2022/01/28 19:38:06;;;;;;;50.58;25.75;;;;;;;-5.54;76.34;98157.66;4886574;29;20504;-66
2022/01/28 19:40:32;;;;;;;30.27;16.65;;;;;;;-5.56;76.56;98155.09;4863952;29;20123;-66
2022/01/28 19:42:58;;;;;;;37.97;16.23;;;;;;;-5.51;76.78;98152.34;4868417;29;20044;-66
2022/01/28 19:45:23;;;;;;;48.88;22.50;;;;;;;-5.63;76.79;98139.75;4881331;29;20052;-67
2022/01/28 19:47:50;;;;;;;47.28;22.30;;;;;;;-5.51;77.10;98142.81;4876069;29;20059;-67
2022/01/28 19:50:19;;;;;;;53.25;22.95;;;;;;;-5.55;76.74;98143.81;4861540;29;20476;-67
2022/01/28 19:52:44;;;;;;;26.50;13.20;;;;;;;-5.51;76.86;98141.97;4867173;29;20416;-68
2022/01/28 19:55:10;;;;;;;42.28;20.42;;;;;;;-5.58;77.00;98143.91;4879926;29;20036;-67
2022/01/28 19:57:36;;;;;;;50.40;21.40;;;;;;;-5.57;77.27;98143.00;4864593;29;20498;-67
2022/01/28 20:00:03;;;;;;;39.42;18.17;;;;;;;-5.44;76.69;98143.47;4877076;29;20043;-67
2022/01/28 20:02:39;;;;;;;42.20;20.13;;;;;;;-5.61;76.57;98145.75;4879747;29;20064;-67
2022/01/28 20:05:04;;;;;;;42.63;20.95;;;;;;;-5.68;77.28;98150.28;4861746;29;20131;-67